EYSAEEEI

Guest
Details From EYSA - SIAULIAI INTL
To EEEI - AMARI
Flight Number -
Tags generated
Created
Modified
Stats Distance 206 nm / 382 km
Max Altitude 23,000 ft / 7,010 m
Waypoints 4
Social Downloads 2
Likes 0
Share VATSIM

Download

Looking for another format? Having issues loading an existing format? Contact us
Advertisement - Login to hide

Notes

Basic altitude profile: - Ascent Rate: 2500ft/min - Ascent Speed: 250kts - Cruise Altitude: 18000ft - Cruise Speed: 510kts - Descent Rate: 1500ft/min - Descent Speed: 250kts Options: - Use NATs: no - Use PACOTS: no - Use low airways: yes - Use high airways: no

Route

EYSA RIA M857 SOKVA EEEI

ID Type Via Altitude Latitude Longitude Leg Dist Tot Dist Heading (true) Name
O EYSA APT - 0 ft / 0 m 55.89290˚ 23.39382˚ - 0 nm - SIAULIAI INTL
RIA VOR - 23,000 ft / 7,010 m 56.92086˚ 23.96519˚ 64 nm 64 nm 17° / 17° RIGA VOR-DME
SOKVA FIX M857 (AWY-LO) 17,500 ft / 5,334 m 57.90000˚ 24.29944˚ 59 nm 124 nm 10° / 11° -
O EEEI APT - 0 ft / 0 m 59.26030˚ 24.20850˚ 81 nm 206 nm 358° / 358° AMARI

Altitude Profile

Advertisement - Login to hide

Weather


0- 5 10 15 20 25 30 35+ Temperature / ° C

Clouds and Precipitation
Forecast for 2017-12-11 12:00 UTC. Updated a few seconds ago

Ground ~20,000 ft ~40,000 ft Winds

EYSA

Details ICAO EYSA (SQQ)
Name SIAULIAI INTL
Region Lithuania
Timezone Europe/Vilnius (UTC+2.0)
Stats Elevation 443 ft / 135 m (AMSL)
Location 55.892897° 23.393817°
Runways 2
Magnetic Variation 7.221° E

METAR

EYSA 111120Z 13013KT 9999 OVC008 M01/M02 Q0994 R14L/19//95 R14R/19//95 GRN NOSIG

Decode

TAF

Not found

Departure Runways

ID Width Length Bearing (true) Bearing (mag) Surface Threshold Offset Overrun Length
14L 148 ft / 45 m 11,462 ft / 3,494 m 146.14° 138.92° Concrete 0 ft / 0 m 0 ft / 0 m
14R 105 ft / 32 m 10,747 ft / 3,276 m 146.14° 138.92° Concrete 0 ft / 0 m 0 ft / 0 m
32L 105 ft / 32 m 10,747 ft / 3,276 m 326.17° 318.95° Concrete 0 ft / 0 m 0 ft / 0 m
32R 148 ft / 45 m 11,462 ft / 3,494 m 326.16° 318.94° Concrete 0 ft / 0 m 0 ft / 0 m

EEEI

Details ICAO EEEI
Name AMARI
Region Estonia
Timezone Europe/Tallinn (UTC+2.0)
Stats Elevation 65 ft / 20 m (AMSL)
Location 59.260295° 24.208504°
Runways 1
Magnetic Variation 8.364° E

METAR

EEEI 111050Z 10006KT CAVOK M01/M03 Q0999 R06/190095 NOSIG

Decode

TAF

TAF EEEI 110530Z 1106/1206 12010KT 9999 SCT030 PROB30 TEMPO 1106/1110 BKN008 BECMG 1116/1118 BKN010 OVC020 TEMPO 1200/1206 3000 SNRA BKN004 OVC010

Decode

Destination Runways

ID Width Length Bearing (true) Bearing (mag) Surface Threshold Offset Overrun Length
07 148 ft / 45 m 6,557 ft / 1,999 m 70.64° 62.28° Concrete 0 ft / 0 m 0 ft / 0 m
25 148 ft / 45 m 6,557 ft / 1,999 m 250.67° 242.31° Concrete 0 ft / 0 m 0 ft / 0 m